Time;durP1;ratioP1;P1;durP2;ratioP2;P2;SDS_P1;SDS_P2;PMS_P1;PMS_P2;Temp;Humidity;BMP_temperature;BMP_pressure;BME280_temperature;BME280_humidity;BME280_pressure;Samples;Min_cycle;Max_cycle;Signal;HPM_P1;HPM_P2
2022/12/06 00:03:06;;;;;;;2.42;2.10;;;;;;;;;;8340922;28;20040;-63
2022/12/06 00:07:06;;;;;;;2.00;1.80;;;;;;;;;;8341228;28;20025;-63
2022/12/06 00:11:13;;;;;;;1.95;1.80;;;;;;;;;;8340025;28;20037;-63
2022/12/06 00:15:13;;;;;;;1.90;1.80;;;;;;;;;;8338804;28;20028;-63
2022/12/06 00:19:18;;;;;;;2.47;2.10;;;;;;;;;;8340812;28;20031;-64
2022/12/06 00:23:18;;;;;;;3.20;2.33;;;;;;;;;;8341313;28;20537;-64
2022/12/06 00:27:18;;;;;;;4.40;2.40;;;;;;;;;;8340061;28;20029;-63
2022/12/06 00:31:20;;;;;;;2.53;2.28;;;;;;;;;;8339963;28;20582;-63
2022/12/06 00:35:20;;;;;;;3.08;2.55;;;;;;;;;;8338783;28;20032;-64
2022/12/06 00:39:20;;;;;;;3.37;2.70;;;;;;;;;;8340877;28;20025;-64
2022/12/06 00:43:21;;;;;;;3.10;2.60;;;;;;;;;;8339956;28;20375;-64
2022/12/06 00:47:21;;;;;;;2.95;2.65;;;;;;;;;;8337057;28;20029;-63
2022/12/06 00:51:22;;;;;;;2.80;2.50;;;;;;;;;;8339066;28;20020;-63
2022/12/06 00:55:22;;;;;;;2.33;2.13;;;;;;;;;;8338500;28;20028;-64
2022/12/06 00:59:22;;;;;;;2.92;2.63;;;;;;;;;;8338369;28;20028;-64
2022/12/06 01:03:23;;;;;;;3.22;2.92;;;;;;;;;;8338268;28;20032;-63
2022/12/06 01:07:23;;;;;;;3.90;2.83;;;;;;;;;;8337470;28;20453;-64
2022/12/06 01:11:24;;;;;;;2.53;2.33;;;;;;;;;;8336811;28;21184;-63
2022/12/06 01:15:24;;;;;;;3.90;2.78;;;;;;;;;;8336924;28;20838;-64
2022/12/06 01:19:24;;;;;;;2.50;2.30;;;;;;;;;;8338319;28;20032;-64
2022/12/06 01:23:24;;;;;;;2.53;2.20;;;;;;;;;;8338827;28;20024;-64
2022/12/06 01:27:25;;;;;;;2.47;2.05;;;;;;;;;;8339638;28;20865;-63
2022/12/06 01:31:26;;;;;;;3.15;2.83;;;;;;;;;;8337033;28;20037;-63
2022/12/06 01:35:26;;;;;;;2.28;1.98;;;;;;;;;;8338585;28;20032;-64
2022/12/06 01:39:26;;;;;;;3.40;2.20;;;;;;;;;;8338900;28;20037;-64
2022/12/06 01:43:33;;;;;;;2.13;1.98;;;;;;;;;;8338041;28;20267;-64
2022/12/06 01:47:41;;;;;;;2.83;2.47;;;;;;;;;;8342791;28;20079;-64
2022/12/06 01:51:43;;;;;;;1.92;1.80;;;;;;;;;;8338687;28;20016;-64
2022/12/06 01:55:44;;;;;;;2.00;1.80;;;;;;;;;;8337356;28;20139;-63
2022/12/06 01:59:45;;;;;;;2.42;1.90;;;;;;;;;;8339205;28;20063;-63
2022/12/06 02:03:46;;;;;;;2.75;2.08;;;;;;;;;;8345429;28;20060;-63
2022/12/06 02:07:47;;;;;;;2.05;1.85;;;;;;;;;;8337781;28;20040;-63
2022/12/06 02:11:47;;;;;;;1.65;1.50;;;;;;;;;;8336794;28;20029;-64
2022/12/06 02:15:57;;;;;;;1.90;1.75;;;;;;;;;;8336234;28;20036;-64
2022/12/06 02:20:10;;;;;;;1.90;1.80;;;;;;;;;;8338557;28;20032;-63
2022/12/06 02:24:28;;;;;;;2.15;1.77;;;;;;;;;;8337431;28;20543;-63
2022/12/06 02:28:28;;;;;;;2.10;1.90;;;;;;;;;;8338316;28;20027;-63
2022/12/06 02:32:49;;;;;;;1.80;1.70;;;;;;;;;;8338761;28;21640;-63
2022/12/06 02:36:52;;;;;;;1.75;1.65;;;;;;;;;;8336066;28;20068;-64
2022/12/06 02:40:57;;;;;;;1.90;1.80;;;;;;;;;;8336710;28;20147;-63
2022/12/06 02:45:00;;;;;;;1.70;1.60;;;;;;;;;;8343107;28;20031;-63
2022/12/06 02:49:01;;;;;;;2.17;1.98;;;;;;;;;;8343508;28;20036;-63
2022/12/06 02:53:02;;;;;;;2.08;1.83;;;;;;;;;;8341816;28;20421;-64
2022/12/06 02:57:03;;;;;;;2.15;1.95;;;;;;;;;;8342450;28;20025;-64
2022/12/06 03:01:05;;;;;;;4.53;2.00;;;;;;;;;;8341231;28;20132;-63
2022/12/06 03:05:26;;;;;;;1.95;1.75;;;;;;;;;;8342028;28;20290;-64
2022/12/06 03:09:35;;;;;;;2.13;1.92;;;;;;;;;;8343852;28;20025;-63
2022/12/06 03:13:45;;;;;;;2.65;2.00;;;;;;;;;;8343938;28;20028;-64
2022/12/06 03:17:49;;;;;;;2.90;2.10;;;;;;;;;;8341070;28;20272;-63
2022/12/06 03:21:52;;;;;;;2.20;1.90;;;;;;;;;;8342320;28;20024;-65
2022/12/06 03:25:54;;;;;;;2.15;1.95;;;;;;;;;;8343292;28;20016;-64
2022/12/06 03:29:57;;;;;;;2.35;2.15;;;;;;;;;;8342619;28;20033;-64
2022/12/06 03:34:00;;;;;;;2.67;1.90;;;;;;;;;;8341930;28;20049;-64
2022/12/06 03:38:05;;;;;;;2.58;2.10;;;;;;;;;;8340947;28;20070;-63
2022/12/06 03:42:05;;;;;;;2.40;2.20;;;;;;;;;;8340005;28;20025;-64
2022/12/06 03:46:10;;;;;;;2.50;2.30;;;;;;;;;;8348163;28;20039;-63
2022/12/06 03:50:15;;;;;;;2.33;2.13;;;;;;;;;;8342530;28;20043;-64
2022/12/06 03:54:15;;;;;;;2.22;2.03;;;;;;;;;;8341837;28;20036;-63
2022/12/06 03:58:15;;;;;;;2.40;2.20;;;;;;;;;;8341095;28;20055;-64
2022/12/06 04:02:16;;;;;;;2.50;2.30;;;;;;;;;;8339299;28;20086;-63
2022/12/06 04:06:16;;;;;;;2.15;1.95;;;;;;;;;;8341329;28;20119;-64
2022/12/06 04:10:16;;;;;;;2.17;1.98;;;;;;;;;;8340767;28;20032;-64
2022/12/06 04:14:16;;;;;;;2.43;2.20;;;;;;;;;;8340453;28;20025;-63
2022/12/06 04:18:17;;;;;;;6.05;2.75;;;;;;;;;;8338783;28;20282;-64
2022/12/06 04:26:36;;;;;;;2.42;2.22;;;;;;;;;;8340009;28;20028;-63
2022/12/06 04:39:15;;;;;;;3.88;3.22;;;;;;;;;;8338780;28;20035;-63
2022/12/06 04:47:33;;;;;;;4.65;3.30;;;;;;;;;;8338645;28;20052;-64
2022/12/06 04:51:34;;;;;;;5.68;3.17;;;;;;;;;;8339471;28;20025;-63
2022/12/06 04:55:34;;;;;;;3.95;3.00;;;;;;;;;;8335833;28;20067;-63
2022/12/06 04:59:34;;;;;;;3.08;2.38;;;;;;;;;;8338410;28;20150;-63
2022/12/06 05:03:35;;;;;;;4.35;3.15;;;;;;;;;;8338313;28;20039;-64
2022/12/06 05:07:35;;;;;;;4.82;3.47;;;;;;;;;;8337006;28;20017;-64
2022/12/06 05:11:35;;;;;;;4.53;3.30;;;;;;;;;;8337836;28;20082;-63
2022/12/06 05:15:35;;;;;;;3.10;2.80;;;;;;;;;;8337895;28;20036;-63
2022/12/06 05:19:36;;;;;;;5.43;3.60;;;;;;;;;;8337206;28;20338;-63
2022/12/06 05:23:36;;;;;;;4.57;3.67;;;;;;;;;;8339615;28;20033;-64
2022/12/06 05:27:36;;;;;;;6.10;4.03;;;;;;;;;;8340618;28;20086;-64
2022/12/06 05:31:36;;;;;;;5.55;4.00;;;;;;;;;;8337488;28;20373;-64
2022/12/06 05:35:37;;;;;;;7.40;4.60;;;;;;;;;;8337249;28;20025;-64
2022/12/06 05:39:38;;;;;;;3.80;3.38;;;;;;;;;;8338512;28;20065;-63
2022/12/06 05:43:38;;;;;;;4.20;3.25;;;;;;;;;;8336265;28;20036;-64
2022/12/06 05:47:38;;;;;;;4.70;3.50;;;;;;;;;;8333700;28;20034;-64
2022/12/06 05:51:38;;;;;;;6.55;3.45;;;;;;;;;;8336119;28;20032;-63
2022/12/06 05:55:39;;;;;;;5.22;3.20;;;;;;;;;;8336745;28;20024;-63
2022/12/06 05:59:39;;;;;;;3.70;3.05;;;;;;;;;;8336316;28;20029;-64
2022/12/06 06:03:39;;;;;;;4.25;3.45;;;;;;;;;;8336849;28;20044;-63
2022/12/06 06:07:39;;;;;;;3.53;2.45;;;;;;;;;;8336779;28;20120;-64
2022/12/06 06:11:40;;;;;;;4.50;3.00;;;;;;;;;;8337427;28;20029;-63
2022/12/06 06:15:40;;;;;;;5.50;4.28;;;;;;;;;;8336272;28;20037;-63
2022/12/06 06:19:40;;;;;;;3.35;2.80;;;;;;;;;;8344155;28;20021;-63
2022/12/06 06:23:40;;;;;;;5.00;3.47;;;;;;;;;;8344235;28;20036;-64
2022/12/06 06:27:40;;;;;;;6.53;3.90;;;;;;;;;;8341884;28;20290;-63
2022/12/06 06:31:41;;;;;;;4.93;3.60;;;;;;;;;;8340692;28;20095;-63
2022/12/06 06:35:41;;;;;;;5.00;3.35;;;;;;;;;;8342370;28;20275;-63
2022/12/06 06:39:41;;;;;;;7.47;3.80;;;;;;;;;;8345769;28;20156;-64
2022/12/06 06:43:42;;;;;;;6.90;4.53;;;;;;;;;;8342017;28;20057;-63
2022/12/06 06:47:42;;;;;;;6.47;3.83;;;;;;;;;;8344418;28;20271;-63
2022/12/06 06:51:42;;;;;;;5.18;3.80;;;;;;;;;;8342327;28;20352;-63
2022/12/06 06:55:43;;;;;;;7.10;3.83;;;;;;;;;;8342772;28;20025;-64
2022/12/06 06:59:44;;;;;;;4.38;3.30;;;;;;;;;;8341941;28;20024;-64
2022/12/06 07:03:45;;;;;;;4.35;3.03;;;;;;;;;;8342825;28;20045;-64
2022/12/06 07:07:45;;;;;;;2.92;2.53;;;;;;;;;;8339900;28;20086;-63
2022/12/06 07:11:46;;;;;;;2.88;2.55;;;;;;;;;;8340640;28;20082;-64
2022/12/06 07:15:46;;;;;;;4.38;3.00;;;;;;;;;;8338247;28;20029;-65
2022/12/06 07:19:46;;;;;;;3.47;2.97;;;;;;;;;;8339701;28;20035;-64
2022/12/06 07:23:47;;;;;;;3.60;2.70;;;;;;;;;;8340081;28;20025;-64
2022/12/06 07:27:47;;;;;;;3.38;2.40;;;;;;;;;;8337219;28;20028;-63
2022/12/06 07:31:47;;;;;;;2.53;2.30;;;;;;;;;;8339082;28;20523;-64
2022/12/06 07:35:53;;;;;;;2.70;2.50;;;;;;;;;;8340167;28;20013;-64
2022/12/06 07:39:53;;;;;;;2.53;2.33;;;;;;;;;;8340271;28;20190;-64
2022/12/06 07:48:14;;;;;;;3.00;2.70;;;;;;;;;;8339828;28;20044;-63
2022/12/06 07:52:14;;;;;;;3.25;2.55;;;;;;;;;;8339258;28;20124;-64
2022/12/06 07:56:14;;;;;;;3.05;2.53;;;;;;;;;;8336338;28;20031;-64
2022/12/06 08:00:15;;;;;;;3.05;2.72;;;;;;;;;;8338297;28;20078;-64
2022/12/06 08:04:15;;;;;;;3.25;2.95;;;;;;;;;;8339279;28;20035;-64
2022/12/06 08:08:15;;;;;;;3.35;3.05;;;;;;;;;;8339283;28;20957;-64
2022/12/06 08:12:15;;;;;;;6.43;3.30;;;;;;;;;;8336625;28;20021;-64
2022/12/06 08:16:16;;;;;;;4.32;3.10;;;;;;;;;;8337732;28;20562;-64
2022/12/06 08:20:16;;;;;;;13.55;5.55;;;;;;;;;;8345680;28;20028;-63
2022/12/06 08:24:16;;;;;;;6.20;3.72;;;;;;;;;;8337551;28;20048;-64
2022/12/06 08:28:17;;;;;;;6.57;2.72;;;;;;;;;;8338966;28;20285;-64
2022/12/06 08:32:17;;;;;;;6.90;3.50;;;;;;;;;;8336930;28;20040;-63
2022/12/06 08:36:18;;;;;;;4.15;2.58;;;;;;;;;;8337285;28;20282;-64
2022/12/06 08:40:19;;;;;;;9.35;2.75;;;;;;;;;;8336856;28;20027;-64
2022/12/06 08:44:19;;;;;;;4.05;2.20;;;;;;;;;;8338987;28;20021;-63
2022/12/06 08:48:20;;;;;;;4.72;2.20;;;;;;;;;;8336555;28;20520;-63
2022/12/06 08:52:20;;;;;;;3.15;2.70;;;;;;;;;;8336639;28;20125;-64
2022/12/06 08:56:21;;;;;;;3.88;2.70;;;;;;;;;;8336260;28;20500;-64
2022/12/06 09:00:21;;;;;;;3.70;2.50;;;;;;;;;;8335849;28;20033;-64
2022/12/06 09:04:22;;;;;;;2.90;2.45;;;;;;;;;;8336925;28;20509;-63
2022/12/06 09:08:22;;;;;;;2.80;2.47;;;;;;;;;;8336106;28;20021;-64
2022/12/06 09:12:23;;;;;;;4.00;3.00;;;;;;;;;;8337416;28;20021;-64
2022/12/06 09:16:23;;;;;;;4.95;2.90;;;;;;;;;;8335682;28;20400;-64
2022/12/06 09:20:23;;;;;;;3.55;2.60;;;;;;;;;;8334298;28;20626;-64
2022/12/06 09:24:23;;;;;;;11.57;2.63;;;;;;;;;;8336040;28;20025;-64
2022/12/06 09:28:24;;;;;;;2.88;2.42;;;;;;;;;;8337739;28;20029;-63
2022/12/06 09:32:24;;;;;;;3.22;2.67;;;;;;;;;;8333205;28;20283;-64
2022/12/06 09:36:29;;;;;;;3.22;2.85;;;;;;;;;;8334514;28;20197;-63
2022/12/06 09:40:33;;;;;;;4.07;2.70;;;;;;;;;;8334258;28;20691;-64
2022/12/06 09:44:46;;;;;;;3.80;3.00;;;;;;;;;;8333136;28;20024;-64
2022/12/06 09:48:46;;;;;;;6.75;2.83;;;;;;;;;;8334466;28;20041;-64
2022/12/06 09:52:53;;;;;;;2.78;2.42;;;;;;;;;;8331889;28;20029;-64
2022/12/06 09:56:57;;;;;;;2.88;2.45;;;;;;;;;;8331252;28;20028;-64
2022/12/06 10:01:04;;;;;;;5.80;4.47;;;;;;;;;;8333113;28;20427;-64
2022/12/06 10:05:07;;;;;;;11.80;10.43;;;;;;;;;;8331059;28;20025;-64
2022/12/06 10:09:16;;;;;;;8.80;4.63;;;;;;;;;;8332707;28;20381;-64
2022/12/06 10:13:16;;;;;;;6.85;6.18;;;;;;;;;;8333373;28;20494;-64
2022/12/06 10:17:19;;;;;;;5.85;5.28;;;;;;;;;;8333993;28;20327;-66
2022/12/06 10:21:51;;;;;;;4.78;4.25;;;;;;;;;;8332694;28;20420;-65
2022/12/06 10:25:52;;;;;;;7.15;6.40;;;;;;;;;;8293345;28;20109;-64
2022/12/06 10:29:52;;;;;;;9.02;7.95;;;;;;;;;;8332167;28;20780;-64
2022/12/06 10:33:57;;;;;;;4.22;3.83;;;;;;;;;;8335499;28;20048;-64
2022/12/06 10:37:57;;;;;;;4.88;4.03;;;;;;;;;;8331535;28;20020;-65
2022/12/06 10:42:10;;;;;;;7.00;6.20;;;;;;;;;;8331248;28;20032;-64
2022/12/06 10:50:53;;;;;;;4.78;4.35;;;;;;;;;;8332256;28;20040;-64
2022/12/06 10:55:09;;;;;;;4.40;3.30;;;;;;;;;;8338439;28;20025;-64
2022/12/06 10:59:19;;;;;;;3.05;2.78;;;;;;;;;;8332165;28;20091;-64
2022/12/06 11:03:21;;;;;;;6.18;5.15;;;;;;;;;;8334536;28;20025;-64
2022/12/06 11:07:30;;;;;;;4.38;3.97;;;;;;;;;;8339091;28;20108;-64
2022/12/06 11:11:32;;;;;;;5.60;5.03;;;;;;;;;;8339840;28;20025;-64
2022/12/06 11:15:34;;;;;;;4.93;2.58;;;;;;;;;;8339267;28;20571;-64
2022/12/06 11:19:37;;;;;;;2.65;2.45;;;;;;;;;;8339517;28;20452;-65
2022/12/06 11:23:41;;;;;;;2.47;2.28;;;;;;;;;;8348580;28;20036;-64
2022/12/06 11:27:46;;;;;;;3.03;2.00;;;;;;;;;;8341002;28;20029;-63
2022/12/06 11:31:48;;;;;;;2.33;2.13;;;;;;;;;;8338081;28;20071;-64
2022/12/06 11:35:48;;;;;;;2.40;2.20;;;;;;;;;;8334843;28;20060;-63
2022/12/06 11:39:51;;;;;;;6.97;5.90;;;;;;;;;;8341687;28;20036;-64
2022/12/06 11:43:53;;;;;;;8.32;7.53;;;;;;;;;;8342664;28;20511;-63
2022/12/06 11:47:54;;;;;;;7.28;6.57;;;;;;;;;;8341668;28;21027;-63
2022/12/06 11:51:54;;;;;;;7.43;6.72;;;;;;;;;;8339422;28;20116;-63
2022/12/06 11:55:57;;;;;;;21.95;19.65;;;;;;;;;;8337777;28;20087;-63
2022/12/06 12:00:17;;;;;;;6.70;5.15;;;;;;;;;;8340836;28;20028;-64
2022/12/06 12:04:24;;;;;;;6.28;5.68;;;;;;;;;;8339744;28;20044;-64
2022/12/06 12:08:26;;;;;;;3.40;3.10;;;;;;;;;;8336663;28;20127;-64
2022/12/06 12:16:59;;;;;;;2.08;1.80;;;;;;;;;;8328643;28;20106;-65
2022/12/06 12:21:01;;;;;;;1.70;1.60;;;;;;;;;;8331501;28;20028;-64
2022/12/06 12:25:19;;;;;;;2.45;1.63;;;;;;;;;;8329505;28;20526;-64
2022/12/06 12:29:19;;;;;;;2.50;2.28;;;;;;;;;;8329049;28;20340;-64
2022/12/06 12:33:21;;;;;;;2.00;1.80;;;;;;;;;;8329971;28;20041;-63
2022/12/06 12:37:21;;;;;;;2.58;2.38;;;;;;;;;;8328479;28;20498;-64
2022/12/06 12:41:22;;;;;;;2.60;2.05;;;;;;;;;;8327677;28;20028;-64
2022/12/06 12:45:22;;;;;;;2.75;2.15;;;;;;;;;;8329102;28;20043;-64
2022/12/06 12:49:33;;;;;;;2.88;2.15;;;;;;;;;;8328536;28;21129;-64
2022/12/06 12:53:36;;;;;;;2.13;2.00;;;;;;;;;;8337625;28;20826;-63
2022/12/06 12:57:36;;;;;;;2.65;2.45;;;;;;;;;;8329357;28;20486;-63
2022/12/06 13:01:39;;;;;;;3.10;2.80;;;;;;;;;;8329814;28;20508;-64
2022/12/06 13:05:39;;;;;;;5.07;3.20;;;;;;;;;;8329294;28;20271;-63
2022/12/06 13:09:40;;;;;;;7.88;5.28;;;;;;;;;;8328765;28;20397;-63
2022/12/06 13:13:44;;;;;;;4.85;3.97;;;;;;;;;;8331650;28;20021;-63
2022/12/06 13:17:47;;;;;;;3.00;2.70;;;;;;;;;;8328250;28;20548;-63
2022/12/06 13:21:48;;;;;;;9.98;6.35;;;;;;;;;;8329282;28;20033;-63
2022/12/06 13:25:52;;;;;;;10.75;7.07;;;;;;;;;;8324991;28;20040;-64
2022/12/06 13:30:13;;;;;;;6.32;4.90;;;;;;;;;;8328521;28;20093;-64
2022/12/06 13:34:20;;;;;;;6.90;5.97;;;;;;;;;;8330268;28;20040;-64
2022/12/06 13:38:23;;;;;;;4.95;4.38;;;;;;;;;;8332112;28;20079;-64
2022/12/06 13:42:35;;;;;;;10.85;7.45;;;;;;;;;;8326621;28;20417;-64
2022/12/06 13:46:35;;;;;;;5.50;3.85;;;;;;;;;;8326181;28;20106;-64
2022/12/06 13:50:35;;;;;;;4.82;4.30;;;;;;;;;;8329652;28;20032;-64
2022/12/06 13:54:35;;;;;;;4.22;3.70;;;;;;;;;;8331507;28;20398;-64
2022/12/06 13:58:40;;;;;;;4.20;3.80;;;;;;;;;;8334674;28;20036;-64
2022/12/06 14:02:44;;;;;;;5.22;3.63;;;;;;;;;;8336829;28;20283;-64
2022/12/06 14:06:44;;;;;;;4.20;3.80;;;;;;;;;;8334780;28;20471;-64
2022/12/06 14:10:45;;;;;;;4.38;3.85;;;;;;;;;;8335776;28;20029;-65
2022/12/06 14:15:01;;;;;;;3.95;3.15;;;;;;;;;;8336319;28;20035;-63
2022/12/06 14:19:03;;;;;;;6.45;4.05;;;;;;;;;;8332268;28;20162;-62
2022/12/06 14:23:19;;;;;;;4.22;3.33;;;;;;;;;;8334109;28;20492;-63
2022/12/06 14:27:21;;;;;;;4.10;3.47;;;;;;;;;;8336156;28;20031;-65
2022/12/06 14:31:23;;;;;;;3.85;3.30;;;;;;;;;;8334539;28;20385;-64
2022/12/06 14:36:18;;;;;;;4.55;3.20;;;;;;;;;;8335377;28;20352;-64
2022/12/06 14:40:21;;;;;;;4.95;3.80;;;;;;;;;;8263251;28;20032;-64
2022/12/06 14:44:29;;;;;;;4.10;2.85;;;;;;;;;;8340459;28;20032;-63
2022/12/06 14:50:22;;;;;;;4.60;3.50;;;;;;;;;;8334778;28;20059;-64
2022/12/06 14:52:58;;;;;;;5.25;3.95;;;;;;;;;;8333079;28;20025;-63
2022/12/06 14:56:58;;;;;;;4.93;3.25;;;;;;;;;;8341573;28;20425;-63
2022/12/06 15:01:00;;;;;;;4.25;3.60;;;;;;;;;;8348995;28;20135;-63
2022/12/06 15:05:00;;;;;;;6.25;3.60;;;;;;;;;;8334199;28;20143;-64
2022/12/06 15:09:00;;;;;;;9.65;4.43;;;;;;;;;;8334083;28;20159;-63
2022/12/06 15:13:13;;;;;;;4.82;3.67;;;;;;;;;;8332728;28;20554;-65
2022/12/06 15:17:15;;;;;;;6.35;4.13;;;;;;;;;;8332157;28;20728;-63
2022/12/06 15:21:16;;;;;;;3.60;3.15;;;;;;;;;;8333919;28;21577;-63
2022/12/06 15:25:16;;;;;;;6.47;3.35;;;;;;;;;;8335297;28;20147;-65
2022/12/06 15:29:17;;;;;;;6.57;4.18;;;;;;;;;;8333494;28;20024;-63
2022/12/06 15:33:18;;;;;;;8.38;4.30;;;;;;;;;;8333381;28;20483;-64
2022/12/06 15:37:20;;;;;;;6.15;4.65;;;;;;;;;;8331683;28;20580;-63
2022/12/06 15:41:25;;;;;;;5.90;3.88;;;;;;;;;;8332696;28;20107;-64
2022/12/06 15:45:25;;;;;;;5.65;3.53;;;;;;;;;;8330933;28;20627;-64
2022/12/06 15:49:25;;;;;;;4.78;3.88;;;;;;;;;;8328031;28;20024;-64
2022/12/06 15:53:26;;;;;;;6.10;4.67;;;;;;;;;;8331154;28;20336;-64
2022/12/06 15:57:26;;;;;;;6.13;4.30;;;;;;;;;;8337300;28;21026;-64
2022/12/06 16:01:31;;;;;;;4.50;3.55;;;;;;;;;;8333142;28;20036;-63
2022/12/06 16:05:31;;;;;;;4.00;3.20;;;;;;;;;;8347531;28;20031;-63
2022/12/06 16:09:31;;;;;;;3.70;3.03;;;;;;;;;;8329925;28;20017;-63
2022/12/06 16:13:31;;;;;;;4.53;3.47;;;;;;;;;;8329292;28;20390;-63
2022/12/06 16:17:32;;;;;;;5.00;3.83;;;;;;;;;;8329355;28;20037;-63
2022/12/06 16:21:33;;;;;;;5.90;3.80;;;;;;;;;;8325701;28;20149;-64
2022/12/06 16:25:34;;;;;;;5.80;4.03;;;;;;;;;;8330635;28;20356;-64
2022/12/06 16:29:34;;;;;;;6.63;5.07;;;;;;;;;;8329880;28;20926;-63
2022/12/06 16:33:34;;;;;;;5.97;3.90;;;;;;;;;;8327905;28;20040;-63
2022/12/06 16:37:34;;;;;;;5.97;4.60;;;;;;;;;;8330639;28;20027;-63
2022/12/06 16:41:35;;;;;;;4.75;4.07;;;;;;;;;;8329478;28;20025;-64
2022/12/06 16:45:36;;;;;;;5.95;4.53;;;;;;;;;;8324606;28;20037;-63
2022/12/06 16:49:38;;;;;;;5.03;3.70;;;;;;;;;;8329106;28;20028;-63
2022/12/06 16:53:38;;;;;;;4.07;3.15;;;;;;;;;;8329466;28;20298;-64
2022/12/06 16:57:38;;;;;;;5.25;4.05;;;;;;;;;;8330175;28;20037;-63
2022/12/06 17:01:44;;;;;;;4.45;3.88;;;;;;;;;;8327142;28;20055;-63
2022/12/06 17:05:44;;;;;;;4.90;3.80;;;;;;;;;;8338338;28;20040;-63
2022/12/06 17:09:45;;;;;;;5.30;4.13;;;;;;;;;;8331320;28;20483;-64
2022/12/06 17:13:45;;;;;;;6.18;4.40;;;;;;;;;;8330442;28;20392;-63
2022/12/06 17:17:45;;;;;;;10.38;5.82;;;;;;;;;;8329435;28;20036;-64
2022/12/06 17:21:46;;;;;;;7.55;4.20;;;;;;;;;;8329716;28;20048;-64
2022/12/06 17:25:54;;;;;;;5.18;4.18;;;;;;;;;;8329438;28;20028;-64
2022/12/06 17:29:54;;;;;;;8.63;5.43;;;;;;;;;;8345526;28;20060;-63
2022/12/06 17:33:56;;;;;;;8.63;4.78;;;;;;;;;;8328649;28;20106;-64
2022/12/06 17:37:56;;;;;;;6.07;4.47;;;;;;;;;;8328057;28;20033;-64
2022/12/06 17:46:15;;;;;;;6.65;4.60;;;;;;;;;;8328783;28;20434;-63
2022/12/06 17:50:16;;;;;;;5.10;4.03;;;;;;;;;;8330950;28;20549;-63
2022/12/06 17:54:16;;;;;;;5.30;4.03;;;;;;;;;;8329804;28;20595;-63
2022/12/06 17:58:17;;;;;;;6.55;4.40;;;;;;;;;;8329447;28;20657;-64
2022/12/06 18:02:18;;;;;;;6.07;4.20;;;;;;;;;;8328741;28;20029;-63
2022/12/06 18:06:19;;;;;;;4.47;3.70;;;;;;;;;;8329978;28;20025;-64
2022/12/06 18:10:19;;;;;;;6.60;4.43;;;;;;;;;;8327675;28;20451;-63
2022/12/06 18:14:19;;;;;;;9.53;4.67;;;;;;;;;;8334552;28;20661;-63
2022/12/06 18:18:20;;;;;;;8.57;5.95;;;;;;;;;;8332718;28;20279;-63
2022/12/06 18:22:20;;;;;;;6.35;4.95;;;;;;;;;;8332611;28;20025;-63
2022/12/06 18:26:21;;;;;;;5.93;4.38;;;;;;;;;;8336372;28;20024;-63
2022/12/06 18:30:21;;;;;;;8.00;4.63;;;;;;;;;;8334838;28;20028;-64
2022/12/06 18:34:21;;;;;;;9.20;5.20;;;;;;;;;;8334779;28;20082;-64
2022/12/06 18:38:22;;;;;;;8.95;4.78;;;;;;;;;;8337226;28;20056;-63
2022/12/06 18:42:22;;;;;;;15.77;7.70;;;;;;;;;;8334809;28;20013;-65
2022/12/06 18:46:23;;;;;;;15.90;7.32;;;;;;;;;;8338666;28;20037;-64
2022/12/06 18:50:23;;;;;;;19.42;7.75;;;;;;;;;;8336103;28;20477;-64
2022/12/06 18:54:25;;;;;;;15.97;7.13;;;;;;;;;;8338949;28;20111;-64
2022/12/06 18:58:25;;;;;;;33.05;8.68;;;;;;;;;;8336636;28;20298;-63
2022/12/06 19:02:25;;;;;;;15.30;7.33;;;;;;;;;;8338836;28;20032;-64
2022/12/06 19:06:26;;;;;;;16.35;6.35;;;;;;;;;;8339515;28;20267;-64
2022/12/06 19:10:27;;;;;;;12.88;5.57;;;;;;;;;;8338283;28;20096;-65
2022/12/06 19:14:27;;;;;;;9.88;5.47;;;;;;;;;;8337754;28;20021;-64
2022/12/06 19:18:27;;;;;;;9.02;5.05;;;;;;;;;;8337860;28;20029;-64
2022/12/06 19:22:28;;;;;;;11.93;5.83;;;;;;;;;;8339421;28;20103;-64
2022/12/06 19:26:28;;;;;;;6.87;4.80;;;;;;;;;;8332932;28;20370;-64
2022/12/06 19:30:28;;;;;;;12.18;4.63;;;;;;;;;;8336005;28;20620;-65
2022/12/06 19:34:29;;;;;;;8.63;3.95;;;;;;;;;;8332438;28;20040;-64
2022/12/06 19:38:29;;;;;;;5.80;4.05;;;;;;;;;;8336776;28;20961;-64
2022/12/06 19:46:48;;;;;;;6.18;3.97;;;;;;;;;;8336160;28;20229;-65
2022/12/06 19:50:48;;;;;;;7.40;4.50;;;;;;;;;;8335771;28;20537;-64
2022/12/06 19:54:49;;;;;;;8.68;4.22;;;;;;;;;;8335147;28;21089;-65
2022/12/06 19:58:49;;;;;;;6.65;3.88;;;;;;;;;;8331286;28;20032;-64
2022/12/06 20:02:50;;;;;;;5.40;3.55;;;;;;;;;;8332256;28;20484;-65
2022/12/06 20:06:51;;;;;;;6.00;4.10;;;;;;;;;;8335888;28;20390;-64
2022/12/06 20:10:51;;;;;;;5.25;3.88;;;;;;;;;;8332988;28;20020;-64
2022/12/06 20:14:51;;;;;;;7.95;4.25;;;;;;;;;;8336647;28;20110;-64
2022/12/06 20:18:52;;;;;;;7.38;4.22;;;;;;;;;;8329920;28;20731;-64
2022/12/06 20:22:52;;;;;;;5.00;3.95;;;;;;;;;;8333775;28;20021;-63
2022/12/06 20:26:53;;;;;;;8.35;4.25;;;;;;;;;;8332272;28;20039;-63
2022/12/06 20:30:53;;;;;;;8.35;3.95;;;;;;;;;;8332902;28;20037;-63
2022/12/06 20:34:55;;;;;;;8.35;5.38;;;;;;;;;;8330728;28;20016;-64
2022/12/06 20:38:55;;;;;;;15.18;7.53;;;;;;;;;;8335329;28;20033;-64
2022/12/06 20:42:56;;;;;;;9.25;5.60;;;;;;;;;;8333265;28;20041;-64
2022/12/06 20:46:57;;;;;;;8.30;4.35;;;;;;;;;;8334364;28;20086;-64
2022/12/06 20:50:57;;;;;;;9.75;5.05;;;;;;;;;;8336489;28;20956;-64
2022/12/06 20:54:57;;;;;;;5.80;4.70;;;;;;;;;;8333971;28;20024;-64
2022/12/06 20:58:58;;;;;;;6.53;4.82;;;;;;;;;;8337605;28;20024;-64
2022/12/06 21:02:59;;;;;;;5.65;4.47;;;;;;;;;;8335185;28;20048;-64
2022/12/06 21:06:59;;;;;;;6.47;4.85;;;;;;;;;;8332494;28;20075;-64
2022/12/06 21:10:59;;;;;;;6.82;4.97;;;;;;;;;;8333027;28;20029;-64
2022/12/06 21:14:59;;;;;;;7.53;5.05;;;;;;;;;;8333836;28;20036;-64
2022/12/06 21:19:01;;;;;;;9.83;4.97;;;;;;;;;;8337328;28;20535;-65
2022/12/06 21:23:01;;;;;;;7.22;5.47;;;;;;;;;;8334054;28;20338;-64
2022/12/06 21:27:02;;;;;;;9.70;5.55;;;;;;;;;;8331681;28;20074;-64
2022/12/06 21:31:02;;;;;;;7.10;4.90;;;;;;;;;;8335580;28;20041;-64
2022/12/06 21:35:02;;;;;;;7.43;5.50;;;;;;;;;;8334451;28;20025;-64
2022/12/06 21:39:04;;;;;;;10.50;5.35;;;;;;;;;;8336542;28;20028;-64
2022/12/06 21:43:04;;;;;;;8.85;5.72;;;;;;;;;;8334595;28;20036;-64
2022/12/06 21:47:05;;;;;;;8.98;5.65;;;;;;;;;;8335046;28;20048;-64
2022/12/06 21:51:09;;;;;;;8.82;5.97;;;;;;;;;;8335020;28;20025;-64
2022/12/06 21:55:10;;;;;;;8.23;5.22;;;;;;;;;;8335009;28;20028;-65
2022/12/06 21:59:10;;;;;;;6.88;5.20;;;;;;;;;;8334844;28;20552;-65
2022/12/06 22:03:10;;;;;;;8.15;5.70;;;;;;;;;;8332383;28;20131;-63
2022/12/06 22:07:11;;;;;;;8.15;5.43;;;;;;;;;;8329688;28;20035;-65
2022/12/06 22:11:12;;;;;;;9.95;6.13;;;;;;;;;;8333227;28;20094;-64
2022/12/06 22:15:13;;;;;;;10.23;5.90;;;;;;;;;;8335075;28;20624;-64
2022/12/06 22:19:13;;;;;;;8.95;5.35;;;;;;;;;;8337569;28;20086;-65
2022/12/06 22:23:14;;;;;;;12.35;6.00;;;;;;;;;;8336033;28;20184;-65
2022/12/06 22:27:14;;;;;;;9.98;5.28;;;;;;;;;;8332300;28;20124;-63
2022/12/06 22:31:14;;;;;;;9.35;5.57;;;;;;;;;;8331917;28;20052;-63
2022/12/06 22:35:17;;;;;;;9.20;5.65;;;;;;;;;;8333500;28;20059;-64
2022/12/06 22:39:18;;;;;;;7.93;5.88;;;;;;;;;;8334044;28;20029;-64
2022/12/06 22:43:18;;;;;;;9.10;5.57;;;;;;;;;;8332342;28;20108;-64
2022/12/06 22:47:18;;;;;;;8.50;5.53;;;;;;;;;;8329907;28;20400;-63
2022/12/06 22:51:18;;;;;;;9.95;6.65;;;;;;;;;;8334266;28;20270;-64
2022/12/06 22:55:19;;;;;;;10.02;6.50;;;;;;;;;;8334565;28;20017;-64
2022/12/06 22:59:20;;;;;;;9.47;6.33;;;;;;;;;;8337636;28;20029;-64
2022/12/06 23:03:21;;;;;;;7.13;5.45;;;;;;;;;;8340960;28;20278;-63
2022/12/06 23:07:21;;;;;;;8.35;5.72;;;;;;;;;;8339512;28;20031;-63
2022/12/06 23:11:39;;;;;;;8.13;5.80;;;;;;;;;;8343777;28;20033;-64
2022/12/06 23:15:39;;;;;;;10.10;6.20;;;;;;;;;;8340895;28;20588;-63
2022/12/06 23:19:39;;;;;;;9.68;6.05;;;;;;;;;;8338961;28;20028;-64
2022/12/06 23:23:41;;;;;;;9.40;5.55;;;;;;;;;;8341131;28;20021;-63
2022/12/06 23:27:41;;;;;;;10.27;6.22;;;;;;;;;;8340414;28;20450;-64
2022/12/06 23:31:42;;;;;;;10.18;6.43;;;;;;;;;;8340190;28;20041;-63
2022/12/06 23:35:42;;;;;;;8.43;5.50;;;;;;;;;;8339781;28;20028;-63
2022/12/06 23:39:43;;;;;;;9.23;5.82;;;;;;;;;;8341473;28;20028;-63
2022/12/06 23:43:43;;;;;;;8.20;5.72;;;;;;;;;;8340576;28;20266;-64
2022/12/06 23:47:43;;;;;;;7.95;5.65;;;;;;;;;;8338852;28;20037;-65
2022/12/06 23:51:44;;;;;;;8.45;5.72;;;;;;;;;;8338100;28;20566;-64
2022/12/06 23:55:45;;;;;;;8.50;5.93;;;;;;;;;;8333897;28;20118;-63
2022/12/06 23:59:45;;;;;;;7.72;5.50;;;;;;;;;;8336465;28;20025;-64
